sensor_id;sensor_type;location;lat;lon;timestamp;temperature;humidity
6054;DHT22;3055;50.886;14.814;2024-03-08T00:01:21;-0.90;99.90
6054;DHT22;3055;50.886;14.814;2024-03-08T00:03:49;-0.70;99.90
6054;DHT22;3055;50.886;14.814;2024-03-08T00:06:17;-0.70;99.90
6054;DHT22;3055;50.886;14.814;2024-03-08T00:08:44;-0.80;99.90
6054;DHT22;3055;50.886;14.814;2024-03-08T00:11:13;-0.90;99.90
6054;DHT22;3055;50.886;14.814;2024-03-08T00:13:40;-0.80;99.90
6054;DHT22;3055;50.886;14.814;2024-03-08T00:16:07;-0.70;99.90
6054;DHT22;3055;50.886;14.814;2024-03-08T00:18:35;-0.90;99.90
6054;DHT22;3055;50.886;14.814;2024-03-08T00:21:03;-0.90;99.90
6054;DHT22;3055;50.886;14.814;2024-03-08T00:23:30;-0.90;99.90
6054;DHT22;3055;50.886;14.814;2024-03-08T00:25:59;-0.90;99.90
6054;DHT22;3055;50.886;14.814;2024-03-08T00:28:27;-1.00;99.90
6054;DHT22;3055;50.886;14.814;2024-03-08T00:30:55;-1.00;99.90
6054;DHT22;3055;50.886;14.814;2024-03-08T00:33:22;-1.00;99.90
6054;DHT22;3055;50.886;14.814;2024-03-08T00:35:49;-1.00;99.90
6054;DHT22;3055;50.886;14.814;2024-03-08T00:38:16;-1.00;99.90
6054;DHT22;3055;50.886;14.814;2024-03-08T00:40:44;-1.00;99.90
6054;DHT22;3055;50.886;14.814;2024-03-08T00:43:11;-0.90;99.90
6054;DHT22;3055;50.886;14.814;2024-03-08T00:45:40;-0.80;99.90
6054;DHT22;3055;50.886;14.814;2024-03-08T00:48:08;-1.00;99.90
6054;DHT22;3055;50.886;14.814;2024-03-08T00:50:36;-1.10;99.90
6054;DHT22;3055;50.886;14.814;2024-03-08T00:53:04;-1.10;99.90
6054;DHT22;3055;50.886;14.814;2024-03-08T00:55:31;-1.20;99.90
6054;DHT22;3055;50.886;14.814;2024-03-08T00:57:59;-1.20;99.90
6054;DHT22;3055;50.886;14.814;2024-03-08T01:00:26;-1.20;99.90
6054;DHT22;3055;50.886;14.814;2024-03-08T01:02:55;-1.20;99.90
6054;DHT22;3055;50.886;14.814;2024-03-08T01:05:22;-1.30;99.90
6054;DHT22;3055;50.886;14.814;2024-03-08T01:07:50;-1.40;99.90
6054;DHT22;3055;50.886;14.814;2024-03-08T01:10:17;-1.40;99.90
6054;DHT22;3055;50.886;14.814;2024-03-08T01:12:44;-1.50;99.90
6054;DHT22;3055;50.886;14.814;2024-03-08T01:15:12;-1.50;99.90
6054;DHT22;3055;50.886;14.814;2024-03-08T01:17:39;-1.40;99.90
6054;DHT22;3055;50.886;14.814;2024-03-08T01:20:09;-1.50;99.90
6054;DHT22;3055;50.886;14.814;2024-03-08T01:22:38;-1.50;99.90
6054;DHT22;3055;50.886;14.814;2024-03-08T01:25:06;-1.60;99.90
6054;DHT22;3055;50.886;14.814;2024-03-08T01:27:35;-1.50;99.90
6054;DHT22;3055;50.886;14.814;2024-03-08T01:30:03;-1.50;99.90
6054;DHT22;3055;50.886;14.814;2024-03-08T01:32:30;-1.50;99.90
6054;DHT22;3055;50.886;14.814;2024-03-08T01:34:57;-1.50;99.90
6054;DHT22;3055;50.886;14.814;2024-03-08T01:37:26;-1.60;99.90
6054;DHT22;3055;50.886;14.814;2024-03-08T01:39:55;-1.60;99.90
6054;DHT22;3055;50.886;14.814;2024-03-08T01:42:22;-1.60;99.90
6054;DHT22;3055;50.886;14.814;2024-03-08T01:44:49;-1.60;99.90
6054;DHT22;3055;50.886;14.814;2024-03-08T01:47:17;-1.60;99.90
6054;DHT22;3055;50.886;14.814;2024-03-08T01:49:46;-1.60;99.90
6054;DHT22;3055;50.886;14.814;2024-03-08T01:52:13;-1.70;99.90
6054;DHT22;3055;50.886;14.814;2024-03-08T01:54:42;-1.70;99.90
6054;DHT22;3055;50.886;14.814;2024-03-08T01:57:10;-1.80;99.90
6054;DHT22;3055;50.886;14.814;2024-03-08T01:59:38;-1.80;99.90
6054;DHT22;3055;50.886;14.814;2024-03-08T02:02:06;-1.70;99.90
6054;DHT22;3055;50.886;14.814;2024-03-08T02:04:35;-1.70;99.90
6054;DHT22;3055;50.886;14.814;2024-03-08T02:07:04;-1.70;99.90
6054;DHT22;3055;50.886;14.814;2024-03-08T02:09:32;-1.70;99.90
6054;DHT22;3055;50.886;14.814;2024-03-08T02:12:00;-1.70;99.90
6054;DHT22;3055;50.886;14.814;2024-03-08T02:14:28;-1.70;99.90
6054;DHT22;3055;50.886;14.814;2024-03-08T02:17:00;-1.70;99.90
6054;DHT22;3055;50.886;14.814;2024-03-08T02:19:27;-1.70;99.90
6054;DHT22;3055;50.886;14.814;2024-03-08T02:21:56;-1.70;99.90
6054;DHT22;3055;50.886;14.814;2024-03-08T02:24:24;-1.80;99.90
6054;DHT22;3055;50.886;14.814;2024-03-08T02:26:52;-1.80;99.90
6054;DHT22;3055;50.886;14.814;2024-03-08T02:29:20;-1.80;99.90
6054;DHT22;3055;50.886;14.814;2024-03-08T02:31:47;-1.90;99.90
6054;DHT22;3055;50.886;14.814;2024-03-08T02:34:15;-1.90;99.90
6054;DHT22;3055;50.886;14.814;2024-03-08T02:36:42;-2.00;99.90
6054;DHT22;3055;50.886;14.814;2024-03-08T02:39:11;-2.00;99.90
6054;DHT22;3055;50.886;14.814;2024-03-08T02:41:38;-2.00;99.90
6054;DHT22;3055;50.886;14.814;2024-03-08T02:44:05;-1.90;99.90
6054;DHT22;3055;50.886;14.814;2024-03-08T02:46:33;-1.70;99.90
6054;DHT22;3055;50.886;14.814;2024-03-08T02:49:01;-1.80;99.90
6054;DHT22;3055;50.886;14.814;2024-03-08T02:51:29;-1.80;99.90
6054;DHT22;3055;50.886;14.814;2024-03-08T02:53:56;-1.90;99.90
6054;DHT22;3055;50.886;14.814;2024-03-08T02:56:25;-2.00;99.90
6054;DHT22;3055;50.886;14.814;2024-03-08T02:58:52;-2.10;99.90
6054;DHT22;3055;50.886;14.814;2024-03-08T03:01:19;-2.10;99.90
6054;DHT22;3055;50.886;14.814;2024-03-08T03:03:48;-2.20;99.90
6054;DHT22;3055;50.886;14.814;2024-03-08T03:06:15;-2.30;99.90
6054;DHT22;3055;50.886;14.814;2024-03-08T03:08:42;-2.30;99.90
6054;DHT22;3055;50.886;14.814;2024-03-08T03:11:11;-2.30;99.90
6054;DHT22;3055;50.886;14.814;2024-03-08T03:13:40;-2.30;99.90
6054;DHT22;3055;50.886;14.814;2024-03-08T03:16:17;-2.20;99.90
6054;DHT22;3055;50.886;14.814;2024-03-08T03:18:45;-2.30;99.90
6054;DHT22;3055;50.886;14.814;2024-03-08T03:21:12;-2.30;99.90
6054;DHT22;3055;50.886;14.814;2024-03-08T03:23:40;-2.40;99.90
6054;DHT22;3055;50.886;14.814;2024-03-08T03:26:08;-2.40;99.90
6054;DHT22;3055;50.886;14.814;2024-03-08T03:28:36;-2.40;99.90
6054;DHT22;3055;50.886;14.814;2024-03-08T03:31:06;-2.40;99.90
6054;DHT22;3055;50.886;14.814;2024-03-08T03:33:35;-2.30;99.90
6054;DHT22;3055;50.886;14.814;2024-03-08T03:36:03;-2.30;99.90
6054;DHT22;3055;50.886;14.814;2024-03-08T03:38:34;-2.20;99.90
6054;DHT22;3055;50.886;14.814;2024-03-08T03:41:01;-2.20;99.90
6054;DHT22;3055;50.886;14.814;2024-03-08T03:43:35;-2.20;99.90
6054;DHT22;3055;50.886;14.814;2024-03-08T03:46:07;-2.20;99.90
6054;DHT22;3055;50.886;14.814;2024-03-08T03:48:36;-2.20;99.90
6054;DHT22;3055;50.886;14.814;2024-03-08T03:51:03;-2.30;99.90
6054;DHT22;3055;50.886;14.814;2024-03-08T03:53:30;-2.30;99.90
6054;DHT22;3055;50.886;14.814;2024-03-08T03:55:58;-2.20;99.90
6054;DHT22;3055;50.886;14.814;2024-03-08T03:58:25;-2.10;99.90
6054;DHT22;3055;50.886;14.814;2024-03-08T04:00:53;-2.30;99.90
6054;DHT22;3055;50.886;14.814;2024-03-08T04:03:22;-2.30;99.90
6054;DHT22;3055;50.886;14.814;2024-03-08T04:05:49;-2.40;99.90
6054;DHT22;3055;50.886;14.814;2024-03-08T04:08:16;-2.50;99.90
6054;DHT22;3055;50.886;14.814;2024-03-08T04:10:44;-2.60;99.90
6054;DHT22;3055;50.886;14.814;2024-03-08T04:13:11;-2.60;99.90
6054;DHT22;3055;50.886;14.814;2024-03-08T04:15:38;-2.60;99.90
6054;DHT22;3055;50.886;14.814;2024-03-08T04:18:05;-2.50;99.90
6054;DHT22;3055;50.886;14.814;2024-03-08T04:20:34;-2.40;99.90
6054;DHT22;3055;50.886;14.814;2024-03-08T04:23:02;-2.30;99.90
6054;DHT22;3055;50.886;14.814;2024-03-08T04:25:29;-2.50;99.90
6054;DHT22;3055;50.886;14.814;2024-03-08T04:27:56;-2.50;99.90
6054;DHT22;3055;50.886;14.814;2024-03-08T04:30:23;-2.60;99.90
6054;DHT22;3055;50.886;14.814;2024-03-08T04:32:51;-2.70;99.90
6054;DHT22;3055;50.886;14.814;2024-03-08T04:35:19;-2.60;99.90
6054;DHT22;3055;50.886;14.814;2024-03-08T04:37:48;-2.60;99.90
6054;DHT22;3055;50.886;14.814;2024-03-08T04:40:15;-2.50;99.90
6054;DHT22;3055;50.886;14.814;2024-03-08T04:42:42;-2.60;99.90
6054;DHT22;3055;50.886;14.814;2024-03-08T04:45:10;-2.30;99.90
6054;DHT22;3055;50.886;14.814;2024-03-08T04:47:38;-2.20;99.90
6054;DHT22;3055;50.886;14.814;2024-03-08T04:50:06;-2.30;99.90
6054;DHT22;3055;50.886;14.814;2024-03-08T04:52:34;-2.30;99.90
6054;DHT22;3055;50.886;14.814;2024-03-08T04:55:05;-2.40;99.90
6054;DHT22;3055;50.886;14.814;2024-03-08T04:57:32;-2.50;99.90
6054;DHT22;3055;50.886;14.814;2024-03-08T04:59:59;-2.50;99.90
6054;DHT22;3055;50.886;14.814;2024-03-08T05:02:26;-2.60;99.90
6054;DHT22;3055;50.886;14.814;2024-03-08T05:04:54;-2.60;99.90
6054;DHT22;3055;50.886;14.814;2024-03-08T05:07:21;-2.60;99.90
6054;DHT22;3055;50.886;14.814;2024-03-08T05:09:48;-2.60;99.90
6054;DHT22;3055;50.886;14.814;2024-03-08T05:12:18;-2.50;99.90
6054;DHT22;3055;50.886;14.814;2024-03-08T05:14:46;-2.50;99.90
6054;DHT22;3055;50.886;14.814;2024-03-08T05:17:15;-2.50;99.90
6054;DHT22;3055;50.886;14.814;2024-03-08T05:19:42;-2.60;99.90
6054;DHT22;3055;50.886;14.814;2024-03-08T05:22:10;-2.60;99.90
6054;DHT22;3055;50.886;14.814;2024-03-08T05:24:37;-2.70;99.90
6054;DHT22;3055;50.886;14.814;2024-03-08T05:27:04;-2.60;99.90
6054;DHT22;3055;50.886;14.814;2024-03-08T05:29:33;-2.70;99.90
6054;DHT22;3055;50.886;14.814;2024-03-08T05:32:00;-2.70;99.90
6054;DHT22;3055;50.886;14.814;2024-03-08T05:34:28;-2.60;99.90
6054;DHT22;3055;50.886;14.814;2024-03-08T05:36:56;-2.60;99.90
6054;DHT22;3055;50.886;14.814;2024-03-08T05:39:24;-2.70;99.90
6054;DHT22;3055;50.886;14.814;2024-03-08T05:41:51;-2.80;99.90
6054;DHT22;3055;50.886;14.814;2024-03-08T05:44:20;-2.80;99.90
6054;DHT22;3055;50.886;14.814;2024-03-08T05:46:49;-2.80;99.90
6054;DHT22;3055;50.886;14.814;2024-03-08T05:49:16;-2.60;99.90
6054;DHT22;3055;50.886;14.814;2024-03-08T05:51:43;-2.50;99.90
6054;DHT22;3055;50.886;14.814;2024-03-08T05:54:14;-2.40;99.90
6054;DHT22;3055;50.886;14.814;2024-03-08T05:56:41;-2.20;99.90
6054;DHT22;3055;50.886;14.814;2024-03-08T05:59:09;-2.20;99.90
6054;DHT22;3055;50.886;14.814;2024-03-08T06:01:37;-2.10;99.90
6054;DHT22;3055;50.886;14.814;2024-03-08T06:04:07;-1.90;99.90
6054;DHT22;3055;50.886;14.814;2024-03-08T06:06:35;-1.90;99.90
6054;DHT22;3055;50.886;14.814;2024-03-08T06:09:03;-1.90;99.90
6054;DHT22;3055;50.886;14.814;2024-03-08T06:11:35;-2.00;99.90
6054;DHT22;3055;50.886;14.814;2024-03-08T06:14:03;-2.10;99.90
6054;DHT22;3055;50.886;14.814;2024-03-08T06:16:31;-2.10;99.90
6054;DHT22;3055;50.886;14.814;2024-03-08T06:18:59;-2.10;99.90
6054;DHT22;3055;50.886;14.814;2024-03-08T06:21:29;-2.10;99.90
6054;DHT22;3055;50.886;14.814;2024-03-08T06:23:57;-2.00;99.90
6054;DHT22;3055;50.886;14.814;2024-03-08T06:26:24;-1.80;99.90
6054;DHT22;3055;50.886;14.814;2024-03-08T06:28:54;-1.70;99.90
6054;DHT22;3055;50.886;14.814;2024-03-08T06:31:21;-1.60;99.90
6054;DHT22;3055;50.886;14.814;2024-03-08T06:33:48;-1.60;99.90
6054;DHT22;3055;50.886;14.814;2024-03-08T06:36:16;-1.50;99.90
6054;DHT22;3055;50.886;14.814;2024-03-08T06:38:46;-1.40;99.90
6054;DHT22;3055;50.886;14.814;2024-03-08T06:41:14;-1.40;99.90
6054;DHT22;3055;50.886;14.814;2024-03-08T06:43:41;-1.20;99.90
6054;DHT22;3055;50.886;14.814;2024-03-08T06:46:09;-1.10;99.90
6054;DHT22;3055;50.886;14.814;2024-03-08T06:48:38;-1.00;99.90
6054;DHT22;3055;50.886;14.814;2024-03-08T06:51:05;-0.90;99.90
6054;DHT22;3055;50.886;14.814;2024-03-08T06:53:33;-0.80;99.90
6054;DHT22;3055;50.886;14.814;2024-03-08T06:56:03;-0.70;99.90
6054;DHT22;3055;50.886;14.814;2024-03-08T06:58:30;-0.70;99.90
6054;DHT22;3055;50.886;14.814;2024-03-08T07:00:58;-0.60;99.90
6054;DHT22;3055;50.886;14.814;2024-03-08T07:03:26;-0.50;99.90
6054;DHT22;3055;50.886;14.814;2024-03-08T07:05:55;-0.50;99.90
6054;DHT22;3055;50.886;14.814;2024-03-08T07:08:24;-0.40;99.90
6054;DHT22;3055;50.886;14.814;2024-03-08T07:10:52;-0.20;99.90
6054;DHT22;3055;50.886;14.814;2024-03-08T07:13:21;-0.10;99.90
6054;DHT22;3055;50.886;14.814;2024-03-08T07:15:49;0.00;99.90
6054;DHT22;3055;50.886;14.814;2024-03-08T07:18:18;0.10;99.90
6054;DHT22;3055;50.886;14.814;2024-03-08T07:20:45;0.30;99.90
6054;DHT22;3055;50.886;14.814;2024-03-08T07:23:12;0.40;99.90
6054;DHT22;3055;50.886;14.814;2024-03-08T07:26:00;0.50;99.90
6054;DHT22;3055;50.886;14.814;2024-03-08T07:28:28;0.70;99.90
6054;DHT22;3055;50.886;14.814;2024-03-08T07:30:57;0.80;99.90
6054;DHT22;3055;50.886;14.814;2024-03-08T07:33:38;1.00;99.90
6054;DHT22;3055;50.886;14.814;2024-03-08T07:36:05;1.10;99.90
6054;DHT22;3055;50.886;14.814;2024-03-08T07:38:32;1.20;99.90
6054;DHT22;3055;50.886;14.814;2024-03-08T07:41:00;1.40;99.90
6054;DHT22;3055;50.886;14.814;2024-03-08T07:43:28;1.50;99.90
6054;DHT22;3055;50.886;14.814;2024-03-08T07:45:56;1.60;99.90
6054;DHT22;3055;50.886;14.814;2024-03-08T07:48:23;1.60;99.90
6054;DHT22;3055;50.886;14.814;2024-03-08T07:50:51;1.70;99.90
6054;DHT22;3055;50.886;14.814;2024-03-08T07:53:18;1.80;99.90
6054;DHT22;3055;50.886;14.814;2024-03-08T07:55:45;1.90;99.90
6054;DHT22;3055;50.886;14.814;2024-03-08T07:58:13;2.00;99.90
6054;DHT22;3055;50.886;14.814;2024-03-08T08:00:41;2.10;99.90
6054;DHT22;3055;50.886;14.814;2024-03-08T08:03:09;2.20;99.90
6054;DHT22;3055;50.886;14.814;2024-03-08T08:05:36;2.30;99.90
6054;DHT22;3055;50.886;14.814;2024-03-08T08:08:05;2.40;99.90
6054;DHT22;3055;50.886;14.814;2024-03-08T08:10:32;2.60;99.90
6054;DHT22;3055;50.886;14.814;2024-03-08T08:13:00;2.80;99.90
6054;DHT22;3055;50.886;14.814;2024-03-08T08:15:27;2.90;99.90
6054;DHT22;3055;50.886;14.814;2024-03-08T08:17:56;3.10;99.90
6054;DHT22;3055;50.886;14.814;2024-03-08T08:20:23;3.20;99.90
6054;DHT22;3055;50.886;14.814;2024-03-08T08:22:51;3.30;99.90
6054;DHT22;3055;50.886;14.814;2024-03-08T08:25:20;3.40;99.90
6054;DHT22;3055;50.886;14.814;2024-03-08T08:27:50;3.60;99.90
6054;DHT22;3055;50.886;14.814;2024-03-08T08:30:18;3.70;1.00
6054;DHT22;3055;50.886;14.814;2024-03-08T08:32:46;3.70;1.00
6054;DHT22;3055;50.886;14.814;2024-03-08T08:35:15;3.60;1.00
6054;DHT22;3055;50.886;14.814;2024-03-08T08:37:44;3.60;1.00
6054;DHT22;3055;50.886;14.814;2024-03-08T08:40:11;3.70;1.00
6054;DHT22;3055;50.886;14.814;2024-03-08T08:42:43;3.80;1.00
6054;DHT22;3055;50.886;14.814;2024-03-08T08:45:12;3.90;1.00
6054;DHT22;3055;50.886;14.814;2024-03-08T08:47:39;4.00;1.00
6054;DHT22;3055;50.886;14.814;2024-03-08T08:50:08;4.00;1.00
6054;DHT22;3055;50.886;14.814;2024-03-08T08:52:38;4.00;1.00
6054;DHT22;3055;50.886;14.814;2024-03-08T08:55:06;4.10;1.00
6054;DHT22;3055;50.886;14.814;2024-03-08T08:57:33;4.10;1.00
6054;DHT22;3055;50.886;14.814;2024-03-08T09:00:01;4.30;1.00
6054;DHT22;3055;50.886;14.814;2024-03-08T09:02:28;4.50;1.00
6054;DHT22;3055;50.886;14.814;2024-03-08T09:04:55;4.50;99.90
6054;DHT22;3055;50.886;14.814;2024-03-08T09:07:22;4.60;99.90
6054;DHT22;3055;50.886;14.814;2024-03-08T09:09:51;4.80;1.00
6054;DHT22;3055;50.886;14.814;2024-03-08T09:12:22;4.90;99.90
6054;DHT22;3055;50.886;14.814;2024-03-08T09:14:49;4.80;99.90
6054;DHT22;3055;50.886;14.814;2024-03-08T09:17:16;4.90;99.90
6054;DHT22;3055;50.886;14.814;2024-03-08T09:19:46;4.90;99.90
6054;DHT22;3055;50.886;14.814;2024-03-08T09:22:13;5.00;99.90
6054;DHT22;3055;50.886;14.814;2024-03-08T09:24:40;5.20;99.90
6054;DHT22;3055;50.886;14.814;2024-03-08T09:27:10;5.40;99.90
6054;DHT22;3055;50.886;14.814;2024-03-08T09:29:37;5.50;99.90
6054;DHT22;3055;50.886;14.814;2024-03-08T09:32:04;5.60;99.90
6054;DHT22;3055;50.886;14.814;2024-03-08T09:34:33;5.70;99.90
6054;DHT22;3055;50.886;14.814;2024-03-08T09:37:00;5.70;99.90
6054;DHT22;3055;50.886;14.814;2024-03-08T09:39:30;5.70;99.90
6054;DHT22;3055;50.886;14.814;2024-03-08T09:41:59;5.70;99.90
6054;DHT22;3055;50.886;14.814;2024-03-08T09:44:28;5.70;99.90
6054;DHT22;3055;50.886;14.814;2024-03-08T09:46:55;5.70;99.90
6054;DHT22;3055;50.886;14.814;2024-03-08T09:49:24;5.80;99.90
6054;DHT22;3055;50.886;14.814;2024-03-08T09:51:51;5.80;99.90
6054;DHT22;3055;50.886;14.814;2024-03-08T09:54:19;6.00;99.90
6054;DHT22;3055;50.886;14.814;2024-03-08T09:56:48;6.10;99.90
6054;DHT22;3055;50.886;14.814;2024-03-08T09:59:17;6.10;99.90
6054;DHT22;3055;50.886;14.814;2024-03-08T10:02:03;6.10;99.90
6054;DHT22;3055;50.886;14.814;2024-03-08T10:04:30;6.20;99.90
6054;DHT22;3055;50.886;14.814;2024-03-08T10:06:58;6.30;99.90
6054;DHT22;3055;50.886;14.814;2024-03-08T10:09:25;6.50;99.90
6054;DHT22;3055;50.886;14.814;2024-03-08T10:11:55;6.60;94.20
6054;DHT22;3055;50.886;14.814;2024-03-08T10:14:23;6.70;90.60
6054;DHT22;3055;50.886;14.814;2024-03-08T10:16:52;6.90;77.50
6054;DHT22;3055;50.886;14.814;2024-03-08T10:19:21;7.00;61.00
6054;DHT22;3055;50.886;14.814;2024-03-08T10:21:48;7.20;59.70
6054;DHT22;3055;50.886;14.814;2024-03-08T10:24:17;7.30;51.60
6054;DHT22;3055;50.886;14.814;2024-03-08T10:26:44;7.50;36.00
6054;DHT22;3055;50.886;14.814;2024-03-08T10:29:13;7.60;29.40
6054;DHT22;3055;50.886;14.814;2024-03-08T10:31:43;7.70;18.90
6054;DHT22;3055;50.886;14.814;2024-03-08T10:34:10;7.80;16.50
6054;DHT22;3055;50.886;14.814;2024-03-08T10:36:39;8.00;18.90
6054;DHT22;3055;50.886;14.814;2024-03-08T10:39:14;8.00;3.20
6054;DHT22;3055;50.886;14.814;2024-03-08T10:41:49;8.10;1.00
6054;DHT22;3055;50.886;14.814;2024-03-08T10:44:29;8.20;1.00
6054;DHT22;3055;50.886;14.814;2024-03-08T10:47:01;8.30;1.00
6054;DHT22;3055;50.886;14.814;2024-03-08T10:49:32;8.30;1.00
6054;DHT22;3055;50.886;14.814;2024-03-08T10:52:03;8.20;1.00
6054;DHT22;3055;50.886;14.814;2024-03-08T10:54:31;8.20;1.00
6054;DHT22;3055;50.886;14.814;2024-03-08T10:56:59;8.30;1.00
6054;DHT22;3055;50.886;14.814;2024-03-08T10:59:29;8.40;1.00
6054;DHT22;3055;50.886;14.814;2024-03-08T11:01:57;8.50;1.00
6054;DHT22;3055;50.886;14.814;2024-03-08T11:04:24;8.60;1.00
6054;DHT22;3055;50.886;14.814;2024-03-08T11:06:52;8.70;1.00
6054;DHT22;3055;50.886;14.814;2024-03-08T11:09:31;8.70;1.00
6054;DHT22;3055;50.886;14.814;2024-03-08T11:12:24;8.80;1.00
6054;DHT22;3055;50.886;14.814;2024-03-08T11:14:58;8.80;1.00
6054;DHT22;3055;50.886;14.814;2024-03-08T11:17:40;8.70;1.00
6054;DHT22;3055;50.886;14.814;2024-03-08T11:20:11;8.70;1.00
6054;DHT22;3055;50.886;14.814;2024-03-08T11:22:42;8.70;1.00
6054;DHT22;3055;50.886;14.814;2024-03-08T11:25:31;8.70;1.00
6054;DHT22;3055;50.886;14.814;2024-03-08T11:28:16;8.80;1.00
6054;DHT22;3055;50.886;14.814;2024-03-08T11:30:45;8.90;1.00
6054;DHT22;3055;50.886;14.814;2024-03-08T11:33:14;9.10;1.00
6054;DHT22;3055;50.886;14.814;2024-03-08T11:35:42;9.40;1.00
6054;DHT22;3055;50.886;14.814;2024-03-08T11:38:12;9.70;1.00
6054;DHT22;3055;50.886;14.814;2024-03-08T11:40:42;9.80;1.00
6054;DHT22;3055;50.886;14.814;2024-03-08T11:43:09;9.60;1.00
6054;DHT22;3055;50.886;14.814;2024-03-08T11:45:36;9.50;1.00
6054;DHT22;3055;50.886;14.814;2024-03-08T11:48:06;9.40;1.00
6054;DHT22;3055;50.886;14.814;2024-03-08T11:50:34;9.60;1.00
6054;DHT22;3055;50.886;14.814;2024-03-08T11:53:02;9.80;1.00
6054;DHT22;3055;50.886;14.814;2024-03-08T11:55:30;10.00;1.00
6054;DHT22;3055;50.886;14.814;2024-03-08T11:58:04;10.00;1.00
6054;DHT22;3055;50.886;14.814;2024-03-08T12:00:34;10.10;1.00
6054;DHT22;3055;50.886;14.814;2024-03-08T12:03:05;10.10;1.00
6054;DHT22;3055;50.886;14.814;2024-03-08T12:05:33;10.20;1.00
6054;DHT22;3055;50.886;14.814;2024-03-08T12:08:00;10.30;1.00
6054;DHT22;3055;50.886;14.814;2024-03-08T12:10:28;10.40;1.00
6054;DHT22;3055;50.886;14.814;2024-03-08T12:12:58;10.30;1.00
6054;DHT22;3055;50.886;14.814;2024-03-08T12:15:28;10.40;1.00
6054;DHT22;3055;50.886;14.814;2024-03-08T12:17:59;10.50;1.00
6054;DHT22;3055;50.886;14.814;2024-03-08T12:20:27;10.70;1.00
6054;DHT22;3055;50.886;14.814;2024-03-08T12:22:57;10.80;1.00
6054;DHT22;3055;50.886;14.814;2024-03-08T12:25:26;10.90;1.00
6054;DHT22;3055;50.886;14.814;2024-03-08T12:28:06;11.10;1.00
6054;DHT22;3055;50.886;14.814;2024-03-08T12:30:45;11.20;1.00
6054;DHT22;3055;50.886;14.814;2024-03-08T12:33:13;11.30;1.00
6054;DHT22;3055;50.886;14.814;2024-03-08T12:35:40;11.10;1.00
6054;DHT22;3055;50.886;14.814;2024-03-08T12:38:07;11.10;1.00
6054;DHT22;3055;50.886;14.814;2024-03-08T12:40:35;11.50;1.00
6054;DHT22;3055;50.886;14.814;2024-03-08T12:43:06;11.70;1.00
6054;DHT22;3055;50.886;14.814;2024-03-08T12:45:33;11.70;1.00
6054;DHT22;3055;50.886;14.814;2024-03-08T12:48:02;11.80;1.00
6054;DHT22;3055;50.886;14.814;2024-03-08T12:50:30;11.70;1.00
6054;DHT22;3055;50.886;14.814;2024-03-08T12:52:57;11.80;1.00
6054;DHT22;3055;50.886;14.814;2024-03-08T12:55:24;11.90;1.00
6054;DHT22;3055;50.886;14.814;2024-03-08T12:57:51;12.10;1.00
6054;DHT22;3055;50.886;14.814;2024-03-08T13:00:18;11.90;1.00
6054;DHT22;3055;50.886;14.814;2024-03-08T13:02:46;11.60;1.00
6054;DHT22;3055;50.886;14.814;2024-03-08T13:05:14;11.60;1.00
6054;DHT22;3055;50.886;14.814;2024-03-08T13:07:41;11.80;1.00
6054;DHT22;3055;50.886;14.814;2024-03-08T13:10:12;11.80;1.00
6054;DHT22;3055;50.886;14.814;2024-03-08T13:12:41;11.90;1.00
6054;DHT22;3055;50.886;14.814;2024-03-08T13:15:08;12.30;1.00
6054;DHT22;3055;50.886;14.814;2024-03-08T13:17:37;12.40;1.00
6054;DHT22;3055;50.886;14.814;2024-03-08T13:20:07;12.70;1.00
6054;DHT22;3055;50.886;14.814;2024-03-08T13:22:36;13.10;1.00
6054;DHT22;3055;50.886;14.814;2024-03-08T13:25:04;13.30;1.00
6054;DHT22;3055;50.886;14.814;2024-03-08T13:27:31;13.40;1.00
6054;DHT22;3055;50.886;14.814;2024-03-08T13:29:59;13.10;1.00
6054;DHT22;3055;50.886;14.814;2024-03-08T13:32:27;13.00;1.00
6054;DHT22;3055;50.886;14.814;2024-03-08T13:34:56;12.90;1.00
6054;DHT22;3055;50.886;14.814;2024-03-08T13:37:24;12.90;1.00
6054;DHT22;3055;50.886;14.814;2024-03-08T13:39:52;13.10;1.00
6054;DHT22;3055;50.886;14.814;2024-03-08T13:42:19;13.40;1.00
6054;DHT22;3055;50.886;14.814;2024-03-08T13:44:46;13.80;1.00
6054;DHT22;3055;50.886;14.814;2024-03-08T13:47:13;13.70;1.00
6054;DHT22;3055;50.886;14.814;2024-03-08T13:49:41;13.90;1.00
6054;DHT22;3055;50.886;14.814;2024-03-08T13:52:09;14.40;1.00
6054;DHT22;3055;50.886;14.814;2024-03-08T13:54:38;15.00;1.00
6054;DHT22;3055;50.886;14.814;2024-03-08T13:57:07;14.70;1.00
6054;DHT22;3055;50.886;14.814;2024-03-08T13:59:34;14.00;1.00
6054;DHT22;3055;50.886;14.814;2024-03-08T14:02:03;13.50;1.00
6054;DHT22;3055;50.886;14.814;2024-03-08T14:04:30;13.00;1.00
6054;DHT22;3055;50.886;14.814;2024-03-08T14:06:57;12.60;1.00
6054;DHT22;3055;50.886;14.814;2024-03-08T14:09:29;12.20;1.00
6054;DHT22;3055;50.886;14.814;2024-03-08T14:11:56;12.10;1.00
6054;DHT22;3055;50.886;14.814;2024-03-08T14:14:25;11.90;1.00
6054;DHT22;3055;50.886;14.814;2024-03-08T14:16:52;11.70;1.00
6054;DHT22;3055;50.886;14.814;2024-03-08T14:19:21;11.90;1.00
6054;DHT22;3055;50.886;14.814;2024-03-08T14:21:48;12.50;1.00
6054;DHT22;3055;50.886;14.814;2024-03-08T14:24:17;12.80;1.00
6054;DHT22;3055;50.886;14.814;2024-03-08T14:26:44;12.70;1.00
6054;DHT22;3055;50.886;14.814;2024-03-08T14:29:12;12.30;1.00
6054;DHT22;3055;50.886;14.814;2024-03-08T14:31:40;12.20;1.00
6054;DHT22;3055;50.886;14.814;2024-03-08T14:34:09;12.20;1.00
6054;DHT22;3055;50.886;14.814;2024-03-08T14:36:36;11.90;1.00
6054;DHT22;3055;50.886;14.814;2024-03-08T14:39:03;11.70;1.00
6054;DHT22;3055;50.886;14.814;2024-03-08T14:41:30;11.40;1.00
6054;DHT22;3055;50.886;14.814;2024-03-08T14:43:57;11.10;1.00
6054;DHT22;3055;50.886;14.814;2024-03-08T14:46:25;10.80;1.00
6054;DHT22;3055;50.886;14.814;2024-03-08T14:48:53;10.60;1.00
6054;DHT22;3055;50.886;14.814;2024-03-08T14:51:22;10.50;1.00
6054;DHT22;3055;50.886;14.814;2024-03-08T14:53:52;10.40;1.00
6054;DHT22;3055;50.886;14.814;2024-03-08T14:56:20;10.30;1.00
6054;DHT22;3055;50.886;14.814;2024-03-08T14:58:48;10.20;1.00
6054;DHT22;3055;50.886;14.814;2024-03-08T15:01:17;10.00;1.00
6054;DHT22;3055;50.886;14.814;2024-03-08T15:03:48;9.90;1.00
6054;DHT22;3055;50.886;14.814;2024-03-08T15:06:16;9.80;1.00
6054;DHT22;3055;50.886;14.814;2024-03-08T15:08:46;9.60;1.00
6054;DHT22;3055;50.886;14.814;2024-03-08T15:11:13;9.60;1.00
6054;DHT22;3055;50.886;14.814;2024-03-08T15:13:47;9.60;1.00
6054;DHT22;3055;50.886;14.814;2024-03-08T15:16:17;9.50;1.00
6054;DHT22;3055;50.886;14.814;2024-03-08T15:18:44;9.40;1.00
6054;DHT22;3055;50.886;14.814;2024-03-08T15:21:13;9.40;1.00
6054;DHT22;3055;50.886;14.814;2024-03-08T15:23:46;9.30;1.00
6054;DHT22;3055;50.886;14.814;2024-03-08T15:26:16;9.30;1.00
6054;DHT22;3055;50.886;14.814;2024-03-08T15:28:43;9.20;1.00
6054;DHT22;3055;50.886;14.814;2024-03-08T15:31:11;9.20;1.00
6054;DHT22;3055;50.886;14.814;2024-03-08T15:33:39;9.20;1.00
6054;DHT22;3055;50.886;14.814;2024-03-08T15:36:10;9.20;1.00
6054;DHT22;3055;50.886;14.814;2024-03-08T15:38:40;9.30;1.00
6054;DHT22;3055;50.886;14.814;2024-03-08T15:41:10;9.30;1.00
6054;DHT22;3055;50.886;14.814;2024-03-08T15:43:39;9.30;1.00
6054;DHT22;3055;50.886;14.814;2024-03-08T15:46:06;9.30;1.00
6054;DHT22;3055;50.886;14.814;2024-03-08T15:48:35;9.40;1.00
6054;DHT22;3055;50.886;14.814;2024-03-08T15:51:03;9.40;1.00
6054;DHT22;3055;50.886;14.814;2024-03-08T15:53:31;9.40;1.00
6054;DHT22;3055;50.886;14.814;2024-03-08T15:55:58;9.50;1.00
6054;DHT22;3055;50.886;14.814;2024-03-08T15:58:27;9.50;1.00
6054;DHT22;3055;50.886;14.814;2024-03-08T16:00:55;9.40;1.00
6054;DHT22;3055;50.886;14.814;2024-03-08T16:03:25;9.40;1.00
6054;DHT22;3055;50.886;14.814;2024-03-08T16:05:53;9.30;1.00